sensor_id;sensor_type;location;lat;lon;timestamp;P1;durP1;ratioP1;P2;durP2;ratioP2
64609;SDS011;51019;46.090;6.350;2022-12-07T00:00:52;42.95;;;18.92;;
64609;SDS011;51019;46.090;6.350;2022-12-07T00:03:19;39.00;;;19.65;;
64609;SDS011;51019;46.090;6.350;2022-12-07T00:05:47;41.38;;;19.77;;
64609;SDS011;51019;46.090;6.350;2022-12-07T00:08:14;36.92;;;18.02;;
64609;SDS011;51019;46.090;6.350;2022-12-07T00:10:43;39.00;;;19.33;;
64609;SDS011;51019;46.090;6.350;2022-12-07T00:13:11;39.33;;;19.92;;
64609;SDS011;51019;46.090;6.350;2022-12-07T00:15:38;41.53;;;19.08;;
64609;SDS011;51019;46.090;6.350;2022-12-07T00:18:05;50.95;;;20.50;;
64609;SDS011;51019;46.090;6.350;2022-12-07T00:20:32;39.67;;;19.77;;
64609;SDS011;51019;46.090;6.350;2022-12-07T00:23:00;41.33;;;20.25;;
64609;SDS011;51019;46.090;6.350;2022-12-07T00:25:27;41.03;;;19.77;;
64609;SDS011;51019;46.090;6.350;2022-12-07T00:27:56;38.08;;;19.63;;
64609;SDS011;51019;46.090;6.350;2022-12-07T00:30:24;41.13;;;20.20;;
64609;SDS011;51019;46.090;6.350;2022-12-07T00:32:51;37.88;;;19.20;;
64609;SDS011;51019;46.090;6.350;2022-12-07T00:35:18;42.10;;;19.65;;
64609;SDS011;51019;46.090;6.350;2022-12-07T00:37:45;40.60;;;20.05;;
64609;SDS011;51019;46.090;6.350;2022-12-07T00:40:13;39.72;;;20.33;;
64609;SDS011;51019;46.090;6.350;2022-12-07T00:42:40;44.45;;;25.20;;
64609;SDS011;51019;46.090;6.350;2022-12-07T00:45:11;41.42;;;20.42;;
64609;SDS011;51019;46.090;6.350;2022-12-07T00:47:38;36.22;;;18.77;;
64609;SDS011;51019;46.090;6.350;2022-12-07T00:50:06;38.47;;;19.10;;
64609;SDS011;51019;46.090;6.350;2022-12-07T00:52:33;41.22;;;20.20;;
64609;SDS011;51019;46.090;6.350;2022-12-07T00:55:01;38.53;;;19.85;;
64609;SDS011;51019;46.090;6.350;2022-12-07T00:57:29;37.85;;;18.67;;
64609;SDS011;51019;46.090;6.350;2022-12-07T00:59:57;41.35;;;19.50;;
64609;SDS011;51019;46.090;6.350;2022-12-07T01:02:27;40.30;;;19.58;;
64609;SDS011;51019;46.090;6.350;2022-12-07T01:04:54;40.60;;;20.42;;
64609;SDS011;51019;46.090;6.350;2022-12-07T01:07:22;37.80;;;18.58;;
64609;SDS011;51019;46.090;6.350;2022-12-07T01:09:49;44.20;;;20.52;;
64609;SDS011;51019;46.090;6.350;2022-12-07T01:12:16;38.47;;;19.58;;
64609;SDS011;51019;46.090;6.350;2022-12-07T01:14:43;40.60;;;20.50;;
64609;SDS011;51019;46.090;6.350;2022-12-07T01:17:11;44.67;;;19.77;;
64609;SDS011;51019;46.090;6.350;2022-12-07T01:19:40;38.30;;;20.08;;
64609;SDS011;51019;46.090;6.350;2022-12-07T01:22:07;41.20;;;19.83;;
64609;SDS011;51019;46.090;6.350;2022-12-07T01:24:35;43.28;;;20.05;;
64609;SDS011;51019;46.090;6.350;2022-12-07T01:27:02;41.72;;;20.98;;
64609;SDS011;51019;46.090;6.350;2022-12-07T01:29:29;42.63;;;19.48;;
64609;SDS011;51019;46.090;6.350;2022-12-07T01:31:57;45.53;;;20.52;;
64609;SDS011;51019;46.090;6.350;2022-12-07T01:34:24;40.40;;;18.90;;
64609;SDS011;51019;46.090;6.350;2022-12-07T01:36:53;42.80;;;18.83;;
64609;SDS011;51019;46.090;6.350;2022-12-07T01:39:20;43.40;;;18.98;;
64609;SDS011;51019;46.090;6.350;2022-12-07T01:41:48;41.15;;;19.75;;
64609;SDS011;51019;46.090;6.350;2022-12-07T01:44:20;42.15;;;19.38;;
64609;SDS011;51019;46.090;6.350;2022-12-07T01:46:48;42.47;;;18.98;;
64609;SDS011;51019;46.090;6.350;2022-12-07T01:49:18;43.10;;;19.50;;
64609;SDS011;51019;46.090;6.350;2022-12-07T01:52:07;44.60;;;19.63;;
64609;SDS011;51019;46.090;6.350;2022-12-07T01:54:40;39.10;;;17.48;;
64609;SDS011;51019;46.090;6.350;2022-12-07T01:57:08;45.58;;;19.48;;
64609;SDS011;51019;46.090;6.350;2022-12-07T01:59:37;42.30;;;20.63;;
64609;SDS011;51019;46.090;6.350;2022-12-07T02:02:07;47.70;;;20.88;;
64609;SDS011;51019;46.090;6.350;2022-12-07T02:04:43;41.75;;;19.95;;
64609;SDS011;51019;46.090;6.350;2022-12-07T02:07:12;42.92;;;18.67;;
64609;SDS011;51019;46.090;6.350;2022-12-07T02:09:39;40.58;;;19.02;;
64609;SDS011;51019;46.090;6.350;2022-12-07T02:12:07;45.58;;;20.15;;
64609;SDS011;51019;46.090;6.350;2022-12-07T02:14:34;40.47;;;19.38;;
64609;SDS011;51019;46.090;6.350;2022-12-07T02:17:05;42.08;;;18.45;;
64609;SDS011;51019;46.090;6.350;2022-12-07T02:25:48;45.78;;;19.13;;
64609;SDS011;51019;46.090;6.350;2022-12-07T02:28:30;44.35;;;18.88;;
64609;SDS011;51019;46.090;6.350;2022-12-07T02:31:04;38.38;;;18.42;;
64609;SDS011;51019;46.090;6.350;2022-12-07T02:33:36;45.35;;;19.45;;
64609;SDS011;51019;46.090;6.350;2022-12-07T02:36:10;39.03;;;18.38;;
64609;SDS011;51019;46.090;6.350;2022-12-07T02:38:44;38.88;;;18.23;;
64609;SDS011;51019;46.090;6.350;2022-12-07T02:43:47;45.08;;;19.17;;
64609;SDS011;51019;46.090;6.350;2022-12-07T02:46:21;41.97;;;18.85;;
64609;SDS011;51019;46.090;6.350;2022-12-07T02:48:52;39.00;;;17.27;;
64609;SDS011;51019;46.090;6.350;2022-12-07T02:51:22;41.97;;;18.63;;
64609;SDS011;51019;46.090;6.350;2022-12-07T02:53:49;39.35;;;18.15;;
64609;SDS011;51019;46.090;6.350;2022-12-07T02:56:18;44.33;;;19.13;;
64609;SDS011;51019;46.090;6.350;2022-12-07T02:58:56;38.50;;;17.27;;
64609;SDS011;51019;46.090;6.350;2022-12-07T03:01:33;40.72;;;18.00;;
64609;SDS011;51019;46.090;6.350;2022-12-07T03:04:11;39.33;;;16.42;;
64609;SDS011;51019;46.090;6.350;2022-12-07T03:06:56;41.67;;;17.55;;
64609;SDS011;51019;46.090;6.350;2022-12-07T03:09:32;38.38;;;17.50;;
64609;SDS011;51019;46.090;6.350;2022-12-07T03:12:06;39.05;;;17.20;;
64609;SDS011;51019;46.090;6.350;2022-12-07T03:14:38;36.60;;;16.65;;
64609;SDS011;51019;46.090;6.350;2022-12-07T03:17:15;38.63;;;17.13;;
64609;SDS011;51019;46.090;6.350;2022-12-07T03:19:47;39.50;;;17.48;;
64609;SDS011;51019;46.090;6.350;2022-12-07T03:22:17;41.10;;;17.60;;
64609;SDS011;51019;46.090;6.350;2022-12-07T03:24:47;43.95;;;19.10;;
64609;SDS011;51019;46.090;6.350;2022-12-07T03:27:19;40.70;;;18.10;;
64609;SDS011;51019;46.090;6.350;2022-12-07T03:29:51;42.03;;;18.90;;
64609;SDS011;51019;46.090;6.350;2022-12-07T03:32:27;37.85;;;17.13;;
64609;SDS011;51019;46.090;6.350;2022-12-07T03:34:59;41.20;;;17.92;;
64609;SDS011;51019;46.090;6.350;2022-12-07T03:37:31;36.90;;;17.30;;
64609;SDS011;51019;46.090;6.350;2022-12-07T03:40:02;38.72;;;17.55;;
64609;SDS011;51019;46.090;6.350;2022-12-07T03:42:35;38.95;;;17.65;;
64609;SDS011;51019;46.090;6.350;2022-12-07T03:45:02;41.53;;;16.98;;
64609;SDS011;51019;46.090;6.350;2022-12-07T03:47:34;39.00;;;16.95;;
64609;SDS011;51019;46.090;6.350;2022-12-07T03:50:09;37.92;;;17.40;;
64609;SDS011;51019;46.090;6.350;2022-12-07T03:52:43;37.60;;;16.45;;
64609;SDS011;51019;46.090;6.350;2022-12-07T03:55:17;39.25;;;16.23;;
64609;SDS011;51019;46.090;6.350;2022-12-07T03:57:48;41.17;;;17.38;;
64609;SDS011;51019;46.090;6.350;2022-12-07T04:00:18;36.38;;;15.75;;
64609;SDS011;51019;46.090;6.350;2022-12-07T04:02:50;36.92;;;17.05;;
64609;SDS011;51019;46.090;6.350;2022-12-07T04:05:18;35.83;;;16.52;;
64609;SDS011;51019;46.090;6.350;2022-12-07T04:07:46;39.72;;;17.63;;
64609;SDS011;51019;46.090;6.350;2022-12-07T04:10:13;36.72;;;16.60;;
64609;SDS011;51019;46.090;6.350;2022-12-07T04:12:41;38.95;;;15.85;;
64609;SDS011;51019;46.090;6.350;2022-12-07T04:15:09;34.25;;;15.52;;
64609;SDS011;51019;46.090;6.350;2022-12-07T04:17:37;41.55;;;16.85;;
64609;SDS011;51019;46.090;6.350;2022-12-07T04:20:08;40.30;;;17.35;;
64609;SDS011;51019;46.090;6.350;2022-12-07T04:22:36;39.08;;;15.57;;
64609;SDS011;51019;46.090;6.350;2022-12-07T04:25:04;38.03;;;16.17;;
64609;SDS011;51019;46.090;6.350;2022-12-07T04:27:32;35.35;;;17.25;;
64609;SDS011;51019;46.090;6.350;2022-12-07T04:29:59;35.80;;;16.90;;
64609;SDS011;51019;46.090;6.350;2022-12-07T04:32:27;37.50;;;17.48;;
64609;SDS011;51019;46.090;6.350;2022-12-07T04:34:54;38.85;;;17.92;;
64609;SDS011;51019;46.090;6.350;2022-12-07T04:37:23;40.05;;;18.65;;
64609;SDS011;51019;46.090;6.350;2022-12-07T04:39:51;39.85;;;18.85;;
64609;SDS011;51019;46.090;6.350;2022-12-07T04:42:18;35.65;;;18.25;;
64609;SDS011;51019;46.090;6.350;2022-12-07T04:44:46;35.75;;;16.35;;
64609;SDS011;51019;46.090;6.350;2022-12-07T04:47:14;40.13;;;18.50;;
64609;SDS011;51019;46.090;6.350;2022-12-07T04:49:41;34.40;;;17.58;;
64609;SDS011;51019;46.090;6.350;2022-12-07T04:52:08;38.67;;;18.50;;
64609;SDS011;51019;46.090;6.350;2022-12-07T04:54:37;40.20;;;18.25;;
64609;SDS011;51019;46.090;6.350;2022-12-07T04:57:05;36.50;;;17.85;;
64609;SDS011;51019;46.090;6.350;2022-12-07T04:59:32;41.28;;;17.92;;
64609;SDS011;51019;46.090;6.350;2022-12-07T05:01:59;40.85;;;18.73;;
64609;SDS011;51019;46.090;6.350;2022-12-07T05:04:26;36.83;;;17.67;;
64609;SDS011;51019;46.090;6.350;2022-12-07T05:06:54;40.72;;;18.35;;
64609;SDS011;51019;46.090;6.350;2022-12-07T05:09:21;40.67;;;18.92;;
64609;SDS011;51019;46.090;6.350;2022-12-07T05:11:51;37.95;;;19.38;;
64609;SDS011;51019;46.090;6.350;2022-12-07T05:14:18;40.58;;;17.83;;
64609;SDS011;51019;46.090;6.350;2022-12-07T05:16:47;41.83;;;19.10;;
64609;SDS011;51019;46.090;6.350;2022-12-07T05:19:16;36.38;;;18.52;;
64609;SDS011;51019;46.090;6.350;2022-12-07T05:21:45;42.17;;;19.70;;
64609;SDS011;51019;46.090;6.350;2022-12-07T05:24:13;46.42;;;19.77;;
64609;SDS011;51019;46.090;6.350;2022-12-07T05:26:41;39.50;;;18.42;;
64609;SDS011;51019;46.090;6.350;2022-12-07T05:29:11;41.28;;;18.08;;
64609;SDS011;51019;46.090;6.350;2022-12-07T05:31:40;37.65;;;17.00;;
64609;SDS011;51019;46.090;6.350;2022-12-07T05:34:07;39.30;;;18.52;;
64609;SDS011;51019;46.090;6.350;2022-12-07T05:36:35;35.58;;;18.20;;
64609;SDS011;51019;46.090;6.350;2022-12-07T05:39:05;37.88;;;17.85;;
64609;SDS011;51019;46.090;6.350;2022-12-07T05:41:33;36.67;;;17.10;;
64609;SDS011;51019;46.090;6.350;2022-12-07T05:44:19;38.65;;;17.88;;
64609;SDS011;51019;46.090;6.350;2022-12-07T05:46:46;35.92;;;17.95;;
64609;SDS011;51019;46.090;6.350;2022-12-07T05:49:13;42.97;;;18.25;;
64609;SDS011;51019;46.090;6.350;2022-12-07T05:51:41;36.20;;;17.48;;
64609;SDS011;51019;46.090;6.350;2022-12-07T05:54:08;34.25;;;16.25;;
64609;SDS011;51019;46.090;6.350;2022-12-07T05:56:35;37.72;;;17.95;;
64609;SDS011;51019;46.090;6.350;2022-12-07T05:59:03;41.22;;;18.20;;
64609;SDS011;51019;46.090;6.350;2022-12-07T06:01:49;36.33;;;16.70;;
64609;SDS011;51019;46.090;6.350;2022-12-07T06:04:16;36.42;;;17.77;;
64609;SDS011;51019;46.090;6.350;2022-12-07T06:06:44;37.60;;;17.33;;
64609;SDS011;51019;46.090;6.350;2022-12-07T06:09:11;37.03;;;18.15;;
64609;SDS011;51019;46.090;6.350;2022-12-07T06:11:39;43.45;;;17.88;;
64609;SDS011;51019;46.090;6.350;2022-12-07T06:14:35;39.42;;;17.65;;
64609;SDS011;51019;46.090;6.350;2022-12-07T06:17:04;37.58;;;16.05;;
64609;SDS011;51019;46.090;6.350;2022-12-07T06:19:32;31.75;;;14.50;;
64609;SDS011;51019;46.090;6.350;2022-12-07T06:22:00;31.73;;;14.43;;
64609;SDS011;51019;46.090;6.350;2022-12-07T06:24:27;37.80;;;17.08;;
64609;SDS011;51019;46.090;6.350;2022-12-07T06:26:55;37.83;;;16.55;;
64609;SDS011;51019;46.090;6.350;2022-12-07T06:29:23;39.08;;;15.95;;
64609;SDS011;51019;46.090;6.350;2022-12-07T06:31:50;37.58;;;14.93;;
64609;SDS011;51019;46.090;6.350;2022-12-07T06:34:20;36.03;;;15.30;;
64609;SDS011;51019;46.090;6.350;2022-12-07T06:36:49;32.85;;;13.82;;
64609;SDS011;51019;46.090;6.350;2022-12-07T06:39:19;35.65;;;14.30;;
64609;SDS011;51019;46.090;6.350;2022-12-07T06:41:47;41.95;;;13.82;;
64609;SDS011;51019;46.090;6.350;2022-12-07T06:44:14;35.10;;;14.80;;
64609;SDS011;51019;46.090;6.350;2022-12-07T06:46:42;29.88;;;12.50;;
64609;SDS011;51019;46.090;6.350;2022-12-07T06:49:09;36.97;;;14.23;;
64609;SDS011;51019;46.090;6.350;2022-12-07T06:51:38;32.35;;;13.95;;
64609;SDS011;51019;46.090;6.350;2022-12-07T06:54:07;33.08;;;14.18;;
64609;SDS011;51019;46.090;6.350;2022-12-07T06:56:35;37.67;;;14.32;;
64609;SDS011;51019;46.090;6.350;2022-12-07T06:59:02;33.00;;;13.50;;
64609;SDS011;51019;46.090;6.350;2022-12-07T07:01:30;35.17;;;14.18;;
64609;SDS011;51019;46.090;6.350;2022-12-07T07:03:58;31.77;;;13.48;;
64609;SDS011;51019;46.090;6.350;2022-12-07T07:06:25;38.10;;;14.50;;
64609;SDS011;51019;46.090;6.350;2022-12-07T07:08:54;35.67;;;13.35;;
64609;SDS011;51019;46.090;6.350;2022-12-07T07:11:22;33.03;;;14.13;;
64609;SDS011;51019;46.090;6.350;2022-12-07T07:13:49;36.15;;;15.30;;
64609;SDS011;51019;46.090;6.350;2022-12-07T07:16:16;34.00;;;13.05;;
64609;SDS011;51019;46.090;6.350;2022-12-07T07:18:44;33.88;;;13.98;;
64609;SDS011;51019;46.090;6.350;2022-12-07T07:21:11;36.60;;;14.43;;
64609;SDS011;51019;46.090;6.350;2022-12-07T07:23:38;34.45;;;13.38;;
64609;SDS011;51019;46.090;6.350;2022-12-07T07:26:07;34.78;;;14.07;;
64609;SDS011;51019;46.090;6.350;2022-12-07T07:28:34;34.42;;;13.82;;
64609;SDS011;51019;46.090;6.350;2022-12-07T07:31:02;35.85;;;14.80;;
64609;SDS011;51019;46.090;6.350;2022-12-07T07:33:29;31.80;;;12.52;;
64609;SDS011;51019;46.090;6.350;2022-12-07T07:35:56;31.90;;;13.02;;
64609;SDS011;51019;46.090;6.350;2022-12-07T07:38:24;35.72;;;15.10;;
64609;SDS011;51019;46.090;6.350;2022-12-07T07:40:51;36.78;;;15.27;;
64609;SDS011;51019;46.090;6.350;2022-12-07T07:43:20;31.85;;;13.30;;
64609;SDS011;51019;46.090;6.350;2022-12-07T07:45:47;33.25;;;13.77;;
64609;SDS011;51019;46.090;6.350;2022-12-07T07:48:14;35.47;;;14.23;;
64609;SDS011;51019;46.090;6.350;2022-12-07T07:50:42;35.15;;;14.02;;
64609;SDS011;51019;46.090;6.350;2022-12-07T07:53:09;36.35;;;12.93;;
64609;SDS011;51019;46.090;6.350;2022-12-07T07:55:37;34.13;;;14.15;;
64609;SDS011;51019;46.090;6.350;2022-12-07T07:58:04;39.92;;;15.75;;
64609;SDS011;51019;46.090;6.350;2022-12-07T08:00:33;35.92;;;14.88;;
64609;SDS011;51019;46.090;6.350;2022-12-07T08:03:00;42.75;;;20.33;;
64609;SDS011;51019;46.090;6.350;2022-12-07T08:05:27;42.60;;;17.35;;
64609;SDS011;51019;46.090;6.350;2022-12-07T08:07:54;33.60;;;14.50;;
64609;SDS011;51019;46.090;6.350;2022-12-07T08:10:21;38.78;;;15.98;;
64609;SDS011;51019;46.090;6.350;2022-12-07T08:12:49;34.33;;;14.68;;
64609;SDS011;51019;46.090;6.350;2022-12-07T08:15:47;33.85;;;14.80;;
64609;SDS011;51019;46.090;6.350;2022-12-07T08:18:15;32.70;;;13.63;;
64609;SDS011;51019;46.090;6.350;2022-12-07T08:20:42;34.65;;;13.52;;
64609;SDS011;51019;46.090;6.350;2022-12-07T08:23:10;32.00;;;13.82;;
64609;SDS011;51019;46.090;6.350;2022-12-07T08:25:37;33.47;;;14.40;;
64609;SDS011;51019;46.090;6.350;2022-12-07T08:28:05;33.13;;;14.00;;
64609;SDS011;51019;46.090;6.350;2022-12-07T08:30:32;32.10;;;12.88;;
64609;SDS011;51019;46.090;6.350;2022-12-07T08:33:01;31.08;;;13.15;;
64609;SDS011;51019;46.090;6.350;2022-12-07T08:35:29;32.00;;;12.57;;
64609;SDS011;51019;46.090;6.350;2022-12-07T08:37:56;35.40;;;13.23;;
64609;SDS011;51019;46.090;6.350;2022-12-07T08:40:23;32.40;;;12.68;;
64609;SDS011;51019;46.090;6.350;2022-12-07T08:42:51;31.65;;;13.63;;
64609;SDS011;51019;46.090;6.350;2022-12-07T08:45:19;33.78;;;15.35;;
64609;SDS011;51019;46.090;6.350;2022-12-07T08:47:48;38.70;;;16.27;;
64609;SDS011;51019;46.090;6.350;2022-12-07T08:50:20;63.38;;;24.95;;
64609;SDS011;51019;46.090;6.350;2022-12-07T08:52:49;31.23;;;13.85;;
64609;SDS011;51019;46.090;6.350;2022-12-07T08:55:19;32.10;;;14.00;;
64609;SDS011;51019;46.090;6.350;2022-12-07T08:57:47;36.60;;;14.27;;
64609;SDS011;51019;46.090;6.350;2022-12-07T09:00:15;33.90;;;14.77;;
64609;SDS011;51019;46.090;6.350;2022-12-07T09:02:43;30.52;;;13.63;;
64609;SDS011;51019;46.090;6.350;2022-12-07T09:05:11;33.40;;;12.35;;
64609;SDS011;51019;46.090;6.350;2022-12-07T09:07:41;32.13;;;13.43;;
64609;SDS011;51019;46.090;6.350;2022-12-07T09:10:10;35.10;;;14.85;;
64609;SDS011;51019;46.090;6.350;2022-12-07T09:12:38;34.03;;;14.45;;
64609;SDS011;51019;46.090;6.350;2022-12-07T09:15:06;30.10;;;13.45;;
64609;SDS011;51019;46.090;6.350;2022-12-07T09:17:34;35.35;;;14.45;;
64609;SDS011;51019;46.090;6.350;2022-12-07T09:20:02;31.08;;;12.88;;
64609;SDS011;51019;46.090;6.350;2022-12-07T09:22:30;38.95;;;17.73;;
64609;SDS011;51019;46.090;6.350;2022-12-07T09:25:00;40.22;;;17.80;;
64609;SDS011;51019;46.090;6.350;2022-12-07T09:27:28;36.53;;;15.60;;
64609;SDS011;51019;46.090;6.350;2022-12-07T09:29:56;41.35;;;15.55;;
64609;SDS011;51019;46.090;6.350;2022-12-07T09:32:23;46.10;;;15.35;;
64609;SDS011;51019;46.090;6.350;2022-12-07T09:34:51;35.35;;;14.55;;
64609;SDS011;51019;46.090;6.350;2022-12-07T09:37:18;34.03;;;14.35;;
64609;SDS011;51019;46.090;6.350;2022-12-07T09:39:46;30.58;;;15.25;;
64609;SDS011;51019;46.090;6.350;2022-12-07T09:42:21;36.70;;;14.73;;
64609;SDS011;51019;46.090;6.350;2022-12-07T09:44:54;36.38;;;15.85;;
64609;SDS011;51019;46.090;6.350;2022-12-07T09:47:22;35.35;;;15.27;;
64609;SDS011;51019;46.090;6.350;2022-12-07T09:49:49;37.55;;;15.63;;
64609;SDS011;51019;46.090;6.350;2022-12-07T09:52:18;36.92;;;14.68;;
64609;SDS011;51019;46.090;6.350;2022-12-07T09:54:48;32.58;;;14.50;;
64609;SDS011;51019;46.090;6.350;2022-12-07T09:57:27;34.58;;;15.10;;
64609;SDS011;51019;46.090;6.350;2022-12-07T09:59:57;33.25;;;14.40;;
64609;SDS011;51019;46.090;6.350;2022-12-07T10:02:33;35.40;;;14.93;;
64609;SDS011;51019;46.090;6.350;2022-12-07T10:05:03;33.85;;;13.90;;
64609;SDS011;51019;46.090;6.350;2022-12-07T10:07:33;34.78;;;14.98;;
64609;SDS011;51019;46.090;6.350;2022-12-07T10:10:02;31.38;;;14.68;;
64609;SDS011;51019;46.090;6.350;2022-12-07T10:12:32;35.72;;;14.63;;
64609;SDS011;51019;46.090;6.350;2022-12-07T10:15:20;36.38;;;15.02;;
64609;SDS011;51019;46.090;6.350;2022-12-07T10:17:48;33.08;;;14.95;;
64609;SDS011;51019;46.090;6.350;2022-12-07T10:20:19;37.58;;;14.90;;
64609;SDS011;51019;46.090;6.350;2022-12-07T10:23:00;33.22;;;14.15;;
64609;SDS011;51019;46.090;6.350;2022-12-07T10:25:30;33.65;;;14.27;;
64609;SDS011;51019;46.090;6.350;2022-12-07T10:28:02;33.55;;;15.52;;
64609;SDS011;51019;46.090;6.350;2022-12-07T10:30:52;34.92;;;14.00;;
64609;SDS011;51019;46.090;6.350;2022-12-07T10:33:31;31.83;;;13.95;;
64609;SDS011;51019;46.090;6.350;2022-12-07T10:36:00;39.08;;;15.57;;
64609;SDS011;51019;46.090;6.350;2022-12-07T10:38:44;37.78;;;16.30;;
64609;SDS011;51019;46.090;6.350;2022-12-07T10:41:13;34.88;;;14.82;;
64609;SDS011;51019;46.090;6.350;2022-12-07T10:43:48;43.42;;;18.25;;
64609;SDS011;51019;46.090;6.350;2022-12-07T10:46:26;32.40;;;14.38;;
64609;SDS011;51019;46.090;6.350;2022-12-07T10:49:23;33.92;;;14.60;;
64609;SDS011;51019;46.090;6.350;2022-12-07T10:52:07;32.47;;;14.07;;
64609;SDS011;51019;46.090;6.350;2022-12-07T10:54:44;32.38;;;13.65;;
64609;SDS011;51019;46.090;6.350;2022-12-07T10:57:25;43.13;;;14.40;;
64609;SDS011;51019;46.090;6.350;2022-12-07T11:03:01;36.78;;;16.13;;
64609;SDS011;51019;46.090;6.350;2022-12-07T11:08:15;36.97;;;14.57;;
64609;SDS011;51019;46.090;6.350;2022-12-07T11:10:52;31.40;;;13.75;;
64609;SDS011;51019;46.090;6.350;2022-12-07T11:13:23;33.92;;;14.82;;
64609;SDS011;51019;46.090;6.350;2022-12-07T11:16:00;28.65;;;12.93;;
64609;SDS011;51019;46.090;6.350;2022-12-07T11:18:41;30.95;;;13.52;;
64609;SDS011;51019;46.090;6.350;2022-12-07T11:21:20;35.33;;;14.00;;
64609;SDS011;51019;46.090;6.350;2022-12-07T11:23:55;35.38;;;16.85;;
64609;SDS011;51019;46.090;6.350;2022-12-07T11:26:34;33.90;;;14.18;;
64609;SDS011;51019;46.090;6.350;2022-12-07T11:32:21;32.47;;;14.23;;
64609;SDS011;51019;46.090;6.350;2022-12-07T11:35:01;31.02;;;13.80;;
64609;SDS011;51019;46.090;6.350;2022-12-07T11:37:35;32.47;;;14.48;;
64609;SDS011;51019;46.090;6.350;2022-12-07T11:40:11;31.80;;;14.20;;
64609;SDS011;51019;46.090;6.350;2022-12-07T11:42:49;31.42;;;12.73;;
64609;SDS011;51019;46.090;6.350;2022-12-07T11:45:25;30.52;;;13.02;;
64609;SDS011;51019;46.090;6.350;2022-12-07T11:47:57;28.75;;;13.07;;
64609;SDS011;51019;46.090;6.350;2022-12-07T11:50:30;37.47;;;15.37;;
64609;SDS011;51019;46.090;6.350;2022-12-07T11:53:04;35.80;;;16.48;;
64609;SDS011;51019;46.090;6.350;2022-12-07T11:55:42;32.58;;;13.95;;
64609;SDS011;51019;46.090;6.350;2022-12-07T11:58:18;32.72;;;12.73;;
64609;SDS011;51019;46.090;6.350;2022-12-07T12:01:08;29.48;;;11.95;;
64609;SDS011;51019;46.090;6.350;2022-12-07T12:03:44;31.77;;;12.75;;
64609;SDS011;51019;46.090;6.350;2022-12-07T12:06:13;33.58;;;12.95;;
64609;SDS011;51019;46.090;6.350;2022-12-07T12:08:42;31.38;;;12.55;;
64609;SDS011;51019;46.090;6.350;2022-12-07T12:13:59;27.45;;;11.82;;
64609;SDS011;51019;46.090;6.350;2022-12-07T12:19:59;28.52;;;11.80;;
64609;SDS011;51019;46.090;6.350;2022-12-07T12:22:33;29.25;;;12.30;;
64609;SDS011;51019;46.090;6.350;2022-12-07T12:25:04;29.80;;;12.63;;
64609;SDS011;51019;46.090;6.350;2022-12-07T12:27:35;28.98;;;11.95;;
64609;SDS011;51019;46.090;6.350;2022-12-07T12:30:06;31.00;;;12.07;;
64609;SDS011;51019;46.090;6.350;2022-12-07T12:32:51;25.50;;;10.75;;
64609;SDS011;51019;46.090;6.350;2022-12-07T12:35:26;29.95;;;12.07;;
64609;SDS011;51019;46.090;6.350;2022-12-07T12:37:57;30.90;;;13.60;;
64609;SDS011;51019;46.090;6.350;2022-12-07T12:41:03;32.35;;;12.57;;
64609;SDS011;51019;46.090;6.350;2022-12-07T12:43:45;28.48;;;13.75;;
64609;SDS011;51019;46.090;6.350;2022-12-07T12:58:31;36.00;;;14.52;;
64609;SDS011;51019;46.090;6.350;2022-12-07T13:10:20;29.52;;;12.15;;
64609;SDS011;51019;46.090;6.350;2022-12-07T13:12:57;31.15;;;13.52;;
64609;SDS011;51019;46.090;6.350;2022-12-07T13:15:34;34.60;;;14.85;;
64609;SDS011;51019;46.090;6.350;2022-12-07T13:20:53;29.52;;;13.45;;
64609;SDS011;51019;46.090;6.350;2022-12-07T13:23:27;33.47;;;14.90;;
64609;SDS011;51019;46.090;6.350;2022-12-07T13:26:01;32.35;;;13.43;;
64609;SDS011;51019;46.090;6.350;2022-12-07T13:28:37;30.50;;;14.15;;
64609;SDS011;51019;46.090;6.350;2022-12-07T13:34:00;30.77;;;12.85;;
64609;SDS011;51019;46.090;6.350;2022-12-07T13:36:29;32.25;;;14.77;;
64609;SDS011;51019;46.090;6.350;2022-12-07T13:39:10;33.95;;;14.05;;
64609;SDS011;51019;46.090;6.350;2022-12-07T13:41:43;29.27;;;12.70;;
64609;SDS011;51019;46.090;6.350;2022-12-07T13:44:12;33.17;;;14.05;;
64609;SDS011;51019;46.090;6.350;2022-12-07T13:46:44;33.72;;;14.35;;
64609;SDS011;51019;46.090;6.350;2022-12-07T13:49:20;33.13;;;14.05;;
64609;SDS011;51019;46.090;6.350;2022-12-07T13:51:49;32.38;;;14.50;;
64609;SDS011;51019;46.090;6.350;2022-12-07T13:54:18;31.88;;;13.50;;
64609;SDS011;51019;46.090;6.350;2022-12-07T13:56:49;29.20;;;12.88;;
64609;SDS011;51019;46.090;6.350;2022-12-07T13:59:19;31.85;;;13.70;;
64609;SDS011;51019;46.090;6.350;2022-12-07T14:01:50;32.75;;;13.90;;
64609;SDS011;51019;46.090;6.350;2022-12-07T14:04:19;35.33;;;15.40;;
64609;SDS011;51019;46.090;6.350;2022-12-07T14:06:59;32.58;;;14.20;;
64609;SDS011;51019;46.090;6.350;2022-12-07T14:09:28;31.70;;;14.23;;
64609;SDS011;51019;46.090;6.350;2022-12-07T14:11:56;31.73;;;14.45;;
64609;SDS011;51019;46.090;6.350;2022-12-07T14:14:25;31.90;;;13.90;;
64609;SDS011;51019;46.090;6.350;2022-12-07T14:16:57;33.83;;;14.65;;
64609;SDS011;51019;46.090;6.350;2022-12-07T14:22:32;34.75;;;14.55;;
64609;SDS011;51019;46.090;6.350;2022-12-07T14:25:01;33.05;;;14.68;;
64609;SDS011;51019;46.090;6.350;2022-12-07T14:27:47;32.25;;;14.48;;
64609;SDS011;51019;46.090;6.350;2022-12-07T14:30:18;32.80;;;13.88;;
64609;SDS011;51019;46.090;6.350;2022-12-07T14:32:48;36.78;;;14.20;;
64609;SDS011;51019;46.090;6.350;2022-12-07T14:35:20;30.45;;;13.50;;
64609;SDS011;51019;46.090;6.350;2022-12-07T14:37:48;32.50;;;13.85;;
64609;SDS011;51019;46.090;6.350;2022-12-07T14:40:16;30.75;;;13.52;;
64609;SDS011;51019;46.090;6.350;2022-12-07T14:42:45;36.38;;;14.32;;
64609;SDS011;51019;46.090;6.350;2022-12-07T14:45:17;31.95;;;13.90;;
64609;SDS011;51019;46.090;6.350;2022-12-07T14:47:48;32.92;;;13.65;;
64609;SDS011;51019;46.090;6.350;2022-12-07T14:50:16;28.55;;;13.45;;
64609;SDS011;51019;46.090;6.350;2022-12-07T14:52:46;32.40;;;14.38;;
64609;SDS011;51019;46.090;6.350;2022-12-07T14:55:20;32.13;;;14.50;;
64609;SDS011;51019;46.090;6.350;2022-12-07T14:57:50;31.85;;;12.85;;
64609;SDS011;51019;46.090;6.350;2022-12-07T15:00:18;34.35;;;14.30;;
64609;SDS011;51019;46.090;6.350;2022-12-07T15:02:49;29.85;;;12.63;;
64609;SDS011;51019;46.090;6.350;2022-12-07T15:05:16;30.20;;;13.63;;
64609;SDS011;51019;46.090;6.350;2022-12-07T15:07:45;33.30;;;14.25;;
64609;SDS011;51019;46.090;6.350;2022-12-07T15:10:14;33.05;;;14.95;;
64609;SDS011;51019;46.090;6.350;2022-12-07T15:12:44;37.45;;;15.18;;
64609;SDS011;51019;46.090;6.350;2022-12-07T15:15:12;34.20;;;14.75;;
64609;SDS011;51019;46.090;6.350;2022-12-07T15:17:40;39.72;;;16.15;;
64609;SDS011;51019;46.090;6.350;2022-12-07T15:20:11;34.90;;;14.93;;
64609;SDS011;51019;46.090;6.350;2022-12-07T15:22:41;35.08;;;17.17;;
64609;SDS011;51019;46.090;6.350;2022-12-07T15:25:12;43.75;;;18.83;;
64609;SDS011;51019;46.090;6.350;2022-12-07T15:27:40;42.38;;;17.33;;
64609;SDS011;51019;46.090;6.350;2022-12-07T15:30:08;39.35;;;17.77;;
64609;SDS011;51019;46.090;6.350;2022-12-07T15:32:36;36.88;;;16.58;;
64609;SDS011;51019;46.090;6.350;2022-12-07T15:35:03;37.90;;;17.13;;